sensor_id;sensor_type;location;lat;lon;timestamp;P1;P2;P0
72509;PMS5003;60532;56.114;40.350;2023-03-01T00:00:54;4.80;0.00;0.00
72509;PMS5003;60532;56.114;40.350;2023-03-01T00:02:55;2.50;0.50;0.00
72509;PMS5003;60532;56.114;40.350;2023-03-01T00:04:55;1.00;1.00;0.00
72509;PMS5003;60532;56.114;40.350;2023-03-01T00:06:56;0.00;0.00;0.00
72509;PMS5003;60532;56.114;40.350;2023-03-01T00:08:56;1.00;0.25;0.00
72509;PMS5003;60532;56.114;40.350;2023-03-01T00:11:00;0.00;0.00;0.00
72509;PMS5003;60532;56.114;40.350;2023-03-01T00:13:01;2.00;0.00;0.00
72509;PMS5003;60532;56.114;40.350;2023-03-01T00:15:01;4.50;2.50;0.75
72509;PMS5003;60532;56.114;40.350;2023-03-01T00:17:02;3.75;1.00;0.00
72509;PMS5003;60532;56.114;40.350;2023-03-01T00:19:02;1.00;0.00;0.00
72509;PMS5003;60532;56.114;40.350;2023-03-01T00:21:03;3.00;0.50;0.50
72509;PMS5003;60532;56.114;40.350;2023-03-01T00:23:04;0.00;0.00;0.00
72509;PMS5003;60532;56.114;40.350;2023-03-01T00:25:04;1.50;1.50;0.00
72509;PMS5003;60532;56.114;40.350;2023-03-01T00:27:05;0.50;0.50;0.00
72509;PMS5003;60532;56.114;40.350;2023-03-01T00:29:05;0.50;0.50;0.00
72509;PMS5003;60532;56.114;40.350;2023-03-01T00:31:07;0.50;0.50;0.00
72509;PMS5003;60532;56.114;40.350;2023-03-01T00:33:08;1.00;1.00;0.00
72509;PMS5003;60532;56.114;40.350;2023-03-01T00:35:08;2.50;1.00;0.00
72509;PMS5003;60532;56.114;40.350;2023-03-01T00:37:09;0.00;0.00;0.00
72509;PMS5003;60532;56.114;40.350;2023-03-01T00:39:11;0.00;0.00;0.00
72509;PMS5003;60532;56.114;40.350;2023-03-01T00:41:13;3.40;1.40;0.00
72509;PMS5003;60532;56.114;40.350;2023-03-01T00:43:14;1.80;0.00;0.00
72509;PMS5003;60532;56.114;40.350;2023-03-01T00:45:14;3.00;1.00;0.00
72509;PMS5003;60532;56.114;40.350;2023-03-01T00:47:15;1.50;1.50;0.00
72509;PMS5003;60532;56.114;40.350;2023-03-01T00:49:15;3.00;0.50;0.00
72509;PMS5003;60532;56.114;40.350;2023-03-01T00:51:17;0.00;0.00;0.00
72509;PMS5003;60532;56.114;40.350;2023-03-01T00:53:17;0.00;0.00;0.00
72509;PMS5003;60532;56.114;40.350;2023-03-01T00:55:18;2.25;0.75;0.00
72509;PMS5003;60532;56.114;40.350;2023-03-01T00:57:18;3.50;1.00;0.00
72509;PMS5003;60532;56.114;40.350;2023-03-01T00:59:19;3.00;3.00;0.00
72509;PMS5003;60532;56.114;40.350;2023-03-01T01:01:21;0.50;0.00;0.00
72509;PMS5003;60532;56.114;40.350;2023-03-01T01:03:22;0.80;0.80;0.00
72509;PMS5003;60532;56.114;40.350;2023-03-01T01:05:24;0.60;0.00;0.00
72509;PMS5003;60532;56.114;40.350;2023-03-01T01:07:25;4.00;1.00;0.00
72509;PMS5003;60532;56.114;40.350;2023-03-01T01:09:25;2.50;0.00;0.00
72509;PMS5003;60532;56.114;40.350;2023-03-01T01:11:26;0.00;0.00;0.00
72509;PMS5003;60532;56.114;40.350;2023-03-01T01:13:28;1.80;1.80;0.00
72509;PMS5003;60532;56.114;40.350;2023-03-01T01:15:29;0.00;0.00;0.00
72509;PMS5003;60532;56.114;40.350;2023-03-01T01:17:29;1.50;0.75;0.00
72509;PMS5003;60532;56.114;40.350;2023-03-01T01:19:30;0.50;0.50;0.00
72509;PMS5003;60532;56.114;40.350;2023-03-01T01:21:31;1.00;1.00;0.00
72509;PMS5003;60532;56.114;40.350;2023-03-01T01:23:31;3.50;1.00;0.00
72509;PMS5003;60532;56.114;40.350;2023-03-01T01:25:34;9.25;0.25;0.00
72509;PMS5003;60532;56.114;40.350;2023-03-01T01:27:34;0.80;0.80;0.00
72509;PMS5003;60532;56.114;40.350;2023-03-01T01:29:34;0.25;0.25;0.00
72509;PMS5003;60532;56.114;40.350;2023-03-01T01:31:36;0.75;0.75;0.00
72509;PMS5003;60532;56.114;40.350;2023-03-01T01:33:37;1.80;1.00;0.00
72509;PMS5003;60532;56.114;40.350;2023-03-01T01:35:37;1.00;1.00;0.00
72509;PMS5003;60532;56.114;40.350;2023-03-01T01:37:38;1.00;0.00;0.00
72509;PMS5003;60532;56.114;40.350;2023-03-01T01:39:39;2.00;1.00;0.00
72509;PMS5003;60532;56.114;40.350;2023-03-01T01:41:40;1.75;0.00;0.00
72509;PMS5003;60532;56.114;40.350;2023-03-01T01:43:43;4.00;0.00;0.00
72509;PMS5003;60532;56.114;40.350;2023-03-01T01:45:44;0.00;0.00;0.00
72509;PMS5003;60532;56.114;40.350;2023-03-01T01:47:44;3.25;1.00;0.00
72509;PMS5003;60532;56.114;40.350;2023-03-01T01:49:49;4.00;1.80;0.60
72509;PMS5003;60532;56.114;40.350;2023-03-01T01:51:53;0.60;0.60;0.00
72509;PMS5003;60532;56.114;40.350;2023-03-01T01:53:59;1.00;0.40;0.00
72509;PMS5003;60532;56.114;40.350;2023-03-01T01:56:00;1.00;1.00;0.00
72509;PMS5003;60532;56.114;40.350;2023-03-01T01:58:02;3.50;1.00;0.00
72509;PMS5003;60532;56.114;40.350;2023-03-01T02:00:06;2.00;0.40;0.00
72509;PMS5003;60532;56.114;40.350;2023-03-01T02:02:07;0.00;0.00;0.00
72509;PMS5003;60532;56.114;40.350;2023-03-01T02:04:08;2.50;0.50;0.00
72509;PMS5003;60532;56.114;40.350;2023-03-01T02:08:19;0.00;0.00;0.00
72509;PMS5003;60532;56.114;40.350;2023-03-01T02:10:20;0.40;0.40;0.00
72509;PMS5003;60532;56.114;40.350;2023-03-01T02:12:23;0.80;0.00;0.00
72509;PMS5003;60532;56.114;40.350;2023-03-01T02:14:24;1.80;0.00;0.00
72509;PMS5003;60532;56.114;40.350;2023-03-01T02:16:24;0.75;0.75;0.00
72509;PMS5003;60532;56.114;40.350;2023-03-01T02:18:26;0.20;0.20;0.00
72509;PMS5003;60532;56.114;40.350;2023-03-01T02:20:30;1.00;1.00;0.00
72509;PMS5003;60532;56.114;40.350;2023-03-01T02:22:34;0.20;0.20;0.00
72509;PMS5003;60532;56.114;40.350;2023-03-01T02:24:41;2.20;0.00;0.00
72509;PMS5003;60532;56.114;40.350;2023-03-01T02:26:47;1.40;1.00;0.00
72509;PMS5003;60532;56.114;40.350;2023-03-01T02:28:48;0.00;0.00;0.00
72509;PMS5003;60532;56.114;40.350;2023-03-01T02:30:49;1.00;1.00;0.00
72509;PMS5003;60532;56.114;40.350;2023-03-01T02:33:09;0.80;0.80;0.00
72509;PMS5003;60532;56.114;40.350;2023-03-01T02:35:10;3.75;2.00;0.00
72509;PMS5003;60532;56.114;40.350;2023-03-01T02:37:13;0.00;0.00;0.00
72509;PMS5003;60532;56.114;40.350;2023-03-01T02:39:17;0.40;0.40;0.00
72509;PMS5003;60532;56.114;40.350;2023-03-01T02:41:20;2.20;0.80;0.00
72509;PMS5003;60532;56.114;40.350;2023-03-01T02:43:22;1.00;1.00;0.00
72509;PMS5003;60532;56.114;40.350;2023-03-01T02:45:24;0.00;0.00;0.00
72509;PMS5003;60532;56.114;40.350;2023-03-01T02:47:25;0.00;0.00;0.00
72509;PMS5003;60532;56.114;40.350;2023-03-01T02:49:29;0.00;0.00;0.00
72509;PMS5003;60532;56.114;40.350;2023-03-01T02:53:47;1.00;1.00;0.00
72509;PMS5003;60532;56.114;40.350;2023-03-01T02:55:52;0.00;0.00;0.00
72509;PMS5003;60532;56.114;40.350;2023-03-01T02:57:53;0.25;0.25;0.00
72509;PMS5003;60532;56.114;40.350;2023-03-01T02:59:54;3.00;1.00;0.00
72509;PMS5003;60532;56.114;40.350;2023-03-01T03:01:55;0.80;0.20;0.00
72509;PMS5003;60532;56.114;40.350;2023-03-01T03:03:56;2.75;1.00;0.00
72509;PMS5003;60532;56.114;40.350;2023-03-01T03:05:56;0.00;0.00;0.00
72509;PMS5003;60532;56.114;40.350;2023-03-01T03:07:58;3.00;1.00;0.00
72509;PMS5003;60532;56.114;40.350;2023-03-01T03:09:59;1.00;1.00;0.00
72509;PMS5003;60532;56.114;40.350;2023-03-01T03:11:59;3.00;1.00;0.00
72509;PMS5003;60532;56.114;40.350;2023-03-01T03:14:00;0.75;0.75;0.00
72509;PMS5003;60532;56.114;40.350;2023-03-01T03:16:01;1.00;1.00;0.00
72509;PMS5003;60532;56.114;40.350;2023-03-01T03:18:03;1.80;1.00;0.00
72509;PMS5003;60532;56.114;40.350;2023-03-01T03:20:04;0.80;0.80;0.00
72509;PMS5003;60532;56.114;40.350;2023-03-01T03:22:05;0.00;0.00;0.00
72509;PMS5003;60532;56.114;40.350;2023-03-01T03:24:09;0.00;0.00;0.00
72509;PMS5003;60532;56.114;40.350;2023-03-01T03:26:09;3.00;0.75;0.00
72509;PMS5003;60532;56.114;40.350;2023-03-01T03:28:13;1.40;0.20;0.00
72509;PMS5003;60532;56.114;40.350;2023-03-01T03:30:17;3.00;1.00;0.00
72509;PMS5003;60532;56.114;40.350;2023-03-01T03:32:18;0.00;0.00;0.00
72509;PMS5003;60532;56.114;40.350;2023-03-01T03:34:18;3.75;0.00;0.00
72509;PMS5003;60532;56.114;40.350;2023-03-01T03:36:21;1.00;1.00;0.00
72509;PMS5003;60532;56.114;40.350;2023-03-01T03:38:22;0.00;0.00;0.00
72509;PMS5003;60532;56.114;40.350;2023-03-01T03:40:22;0.00;0.00;0.00
72509;PMS5003;60532;56.114;40.350;2023-03-01T03:42:23;0.00;0.00;0.00
72509;PMS5003;60532;56.114;40.350;2023-03-01T03:44:23;0.00;0.00;0.00
72509;PMS5003;60532;56.114;40.350;2023-03-01T03:46:24;0.75;0.75;0.00
72509;PMS5003;60532;56.114;40.350;2023-03-01T03:48:25;3.20;1.00;0.00
72509;PMS5003;60532;56.114;40.350;2023-03-01T03:50:26;2.20;1.00;0.00
72509;PMS5003;60532;56.114;40.350;2023-03-01T03:52:27;2.00;0.00;0.00
72509;PMS5003;60532;56.114;40.350;2023-03-01T03:54:27;0.50;0.50;0.00
72509;PMS5003;60532;56.114;40.350;2023-03-01T03:56:28;6.00;1.00;0.00
72509;PMS5003;60532;56.114;40.350;2023-03-01T03:58:28;1.00;1.00;0.00
72509;PMS5003;60532;56.114;40.350;2023-03-01T04:00:29;0.25;0.25;0.00
72509;PMS5003;60532;56.114;40.350;2023-03-01T04:02:29;2.00;2.00;0.00
72509;PMS5003;60532;56.114;40.350;2023-03-01T04:04:30;2.00;1.00;0.00
72509;PMS5003;60532;56.114;40.350;2023-03-01T04:06:30;6.50;3.75;0.00
72509;PMS5003;60532;56.114;40.350;2023-03-01T04:08:31;0.75;0.75;0.00
72509;PMS5003;60532;56.114;40.350;2023-03-01T04:10:35;1.00;0.60;0.00
72509;PMS5003;60532;56.114;40.350;2023-03-01T04:12:37;1.80;0.80;0.00
72509;PMS5003;60532;56.114;40.350;2023-03-01T04:14:37;3.00;3.00;0.00
72509;PMS5003;60532;56.114;40.350;2023-03-01T04:16:38;6.25;3.00;0.00
72509;PMS5003;60532;56.114;40.350;2023-03-01T04:18:38;5.50;1.00;0.50
72509;PMS5003;60532;56.114;40.350;2023-03-01T04:20:39;4.00;1.00;0.25
72509;PMS5003;60532;56.114;40.350;2023-03-01T04:22:40;6.00;4.00;1.00
72509;PMS5003;60532;56.114;40.350;2023-03-01T04:24:40;6.00;1.00;0.00
72509;PMS5003;60532;56.114;40.350;2023-03-01T04:26:41;4.50;3.50;1.00
72509;PMS5003;60532;56.114;40.350;2023-03-01T04:28:41;5.00;3.00;1.00
72509;PMS5003;60532;56.114;40.350;2023-03-01T04:30:46;2.20;1.00;0.00
72509;PMS5003;60532;56.114;40.350;2023-03-01T04:32:47;5.50;3.25;1.00
72509;PMS5003;60532;56.114;40.350;2023-03-01T04:34:47;4.00;4.00;1.00
72509;PMS5003;60532;56.114;40.350;2023-03-01T04:36:48;3.50;2.50;0.00
72509;PMS5003;60532;56.114;40.350;2023-03-01T04:38:48;2.00;2.00;0.00
72509;PMS5003;60532;56.114;40.350;2023-03-01T04:40:49;2.50;2.50;1.00
72509;PMS5003;60532;56.114;40.350;2023-03-01T04:42:49;4.00;4.00;1.00
72509;PMS5003;60532;56.114;40.350;2023-03-01T04:44:50;1.00;1.00;0.75
72509;PMS5003;60532;56.114;40.350;2023-03-01T04:46:51;4.00;4.00;1.80
72509;PMS5003;60532;56.114;40.350;2023-03-01T04:48:51;4.50;3.00;1.00
72509;PMS5003;60532;56.114;40.350;2023-03-01T04:50:52;6.00;3.00;1.00
72509;PMS5003;60532;56.114;40.350;2023-03-01T04:52:52;3.00;3.00;1.00
72509;PMS5003;60532;56.114;40.350;2023-03-01T04:54:53;1.00;1.00;0.00
72509;PMS5003;60532;56.114;40.350;2023-03-01T04:56:54;4.50;1.00;0.75
72509;PMS5003;60532;56.114;40.350;2023-03-01T04:58:54;4.00;4.00;1.00
72509;PMS5003;60532;56.114;40.350;2023-03-01T05:00:55;1.00;1.00;1.00
72509;PMS5003;60532;56.114;40.350;2023-03-01T05:02:57;4.25;3.00;1.00
72509;PMS5003;60532;56.114;40.350;2023-03-01T05:04:57;3.80;0.80;0.80
72509;PMS5003;60532;56.114;40.350;2023-03-01T05:06:58;4.00;1.00;0.00
72509;PMS5003;60532;56.114;40.350;2023-03-01T05:08:58;3.25;3.25;0.25
72509;PMS5003;60532;56.114;40.350;2023-03-01T05:10:59;7.00;3.60;1.00
72509;PMS5003;60532;56.114;40.350;2023-03-01T05:13:00;4.75;0.75;0.00
72509;PMS5003;60532;56.114;40.350;2023-03-01T05:15:01;3.00;1.00;1.00
72509;PMS5003;60532;56.114;40.350;2023-03-01T05:17:07;4.40;4.40;1.00
72509;PMS5003;60532;56.114;40.350;2023-03-01T05:19:07;6.00;6.00;1.00
72509;PMS5003;60532;56.114;40.350;2023-03-01T05:21:15;7.60;5.40;1.00
72509;PMS5003;60532;56.114;40.350;2023-03-01T05:23:16;6.50;4.00;1.00
72509;PMS5003;60532;56.114;40.350;2023-03-01T05:25:16;5.25;1.75;0.50
72509;PMS5003;60532;56.114;40.350;2023-03-01T05:27:17;4.25;4.00;0.25
72509;PMS5003;60532;56.114;40.350;2023-03-01T05:29:20;10.25;3.75;0.75
72509;PMS5003;60532;56.114;40.350;2023-03-01T05:31:30;4.20;4.20;0.60
72509;PMS5003;60532;56.114;40.350;2023-03-01T05:33:30;7.25;2.50;2.00
72509;PMS5003;60532;56.114;40.350;2023-03-01T05:35:32;4.25;4.25;1.25
72509;PMS5003;60532;56.114;40.350;2023-03-01T05:37:32;3.00;3.00;0.80
72509;PMS5003;60532;56.114;40.350;2023-03-01T05:39:33;7.75;5.00;1.25
72509;PMS5003;60532;56.114;40.350;2023-03-01T05:41:33;4.00;4.00;1.50
72509;PMS5003;60532;56.114;40.350;2023-03-01T05:43:34;7.33;5.00;2.00
72509;PMS5003;60532;56.114;40.350;2023-03-01T05:45:35;7.00;7.00;1.67
72509;PMS5003;60532;56.114;40.350;2023-03-01T05:47:36;3.00;3.00;1.00
72509;PMS5003;60532;56.114;40.350;2023-03-01T05:49:36;4.00;4.00;1.00
72509;PMS5003;60532;56.114;40.350;2023-03-01T05:51:36;3.33;3.33;1.33
72509;PMS5003;60532;56.114;40.350;2023-03-01T05:53:37;3.00;3.00;1.00
72509;PMS5003;60532;56.114;40.350;2023-03-01T05:55:37;3.33;3.33;1.67
72509;PMS5003;60532;56.114;40.350;2023-03-01T05:57:38;5.60;4.40;2.20
72509;PMS5003;60532;56.114;40.350;2023-03-01T05:59:39;2.25;1.50;0.25
72509;PMS5003;60532;56.114;40.350;2023-03-01T06:01:40;3.00;3.00;2.60
72509;PMS5003;60532;56.114;40.350;2023-03-01T06:03:41;4.80;4.60;1.60
72509;PMS5003;60532;56.114;40.350;2023-03-01T06:05:42;6.00;3.20;2.00
72509;PMS5003;60532;56.114;40.350;2023-03-01T06:07:42;4.00;4.00;1.00
72509;PMS5003;60532;56.114;40.350;2023-03-01T06:09:43;7.00;4.50;2.00
72509;PMS5003;60532;56.114;40.350;2023-03-01T06:11:44;4.00;3.20;1.60
72509;PMS5003;60532;56.114;40.350;2023-03-01T06:13:45;1.75;1.75;1.00
72509;PMS5003;60532;56.114;40.350;2023-03-01T06:15:45;7.25;2.25;1.00
72509;PMS5003;60532;56.114;40.350;2023-03-01T06:17:46;2.00;2.00;1.00
72509;PMS5003;60532;56.114;40.350;2023-03-01T06:19:46;6.00;5.00;1.00
72509;PMS5003;60532;56.114;40.350;2023-03-01T06:21:47;4.50;4.50;1.00
72509;PMS5003;60532;56.114;40.350;2023-03-01T06:23:47;4.75;4.75;1.00
72509;PMS5003;60532;56.114;40.350;2023-03-01T06:25:48;3.75;3.00;1.00
72509;PMS5003;60532;56.114;40.350;2023-03-01T06:27:49;4.00;3.50;1.00
72509;PMS5003;60532;56.114;40.350;2023-03-01T06:29:49;3.00;3.00;1.00
72509;PMS5003;60532;56.114;40.350;2023-03-01T06:31:50;4.25;3.00;1.00
72509;PMS5003;60532;56.114;40.350;2023-03-01T06:33:50;4.00;4.00;1.00
72509;PMS5003;60532;56.114;40.350;2023-03-01T06:35:51;3.00;3.00;1.50
72509;PMS5003;60532;56.114;40.350;2023-03-01T06:37:54;3.00;3.00;1.00
72509;PMS5003;60532;56.114;40.350;2023-03-01T06:39:54;3.00;3.00;1.00
72509;PMS5003;60532;56.114;40.350;2023-03-01T06:41:55;7.25;2.00;1.00
72509;PMS5003;60532;56.114;40.350;2023-03-01T06:43:56;2.75;2.75;1.00
72509;PMS5003;60532;56.114;40.350;2023-03-01T06:45:56;5.00;2.00;1.00
72509;PMS5003;60532;56.114;40.350;2023-03-01T06:48:06;4.50;2.00;1.00
72509;PMS5003;60532;56.114;40.350;2023-03-01T06:50:07;3.60;3.00;1.00
72509;PMS5003;60532;56.114;40.350;2023-03-01T06:52:08;4.75;4.75;2.00
72509;PMS5003;60532;56.114;40.350;2023-03-01T06:54:09;4.00;3.75;1.00
72509;PMS5003;60532;56.114;40.350;2023-03-01T06:56:09;3.40;3.40;1.60
72509;PMS5003;60532;56.114;40.350;2023-03-01T06:58:10;2.75;2.50;0.75
72509;PMS5003;60532;56.114;40.350;2023-03-01T07:00:11;3.20;2.40;1.00
72509;PMS5003;60532;56.114;40.350;2023-03-01T07:02:12;4.25;1.25;0.00
72509;PMS5003;60532;56.114;40.350;2023-03-01T07:04:12;4.00;3.25;1.00
72509;PMS5003;60532;56.114;40.350;2023-03-01T07:06:13;5.80;4.00;1.00
72509;PMS5003;60532;56.114;40.350;2023-03-01T07:08:13;6.75;4.25;1.25
72509;PMS5003;60532;56.114;40.350;2023-03-01T07:10:14;7.75;5.75;1.00
72509;PMS5003;60532;56.114;40.350;2023-03-01T07:12:14;3.00;3.00;1.25
72509;PMS5003;60532;56.114;40.350;2023-03-01T07:14:15;7.00;3.25;2.00
72509;PMS5003;60532;56.114;40.350;2023-03-01T07:16:16;4.75;3.50;2.00
72509;PMS5003;60532;56.114;40.350;2023-03-01T07:18:16;4.00;3.00;1.25
72509;PMS5003;60532;56.114;40.350;2023-03-01T07:20:17;8.75;4.75;2.00
72509;PMS5003;60532;56.114;40.350;2023-03-01T07:22:18;3.20;2.60;1.60
72509;PMS5003;60532;56.114;40.350;2023-03-01T07:24:18;2.75;2.75;1.00
72509;PMS5003;60532;56.114;40.350;2023-03-01T07:26:19;4.00;2.25;1.00
72509;PMS5003;60532;56.114;40.350;2023-03-01T07:28:20;3.00;3.00;1.50
72509;PMS5003;60532;56.114;40.350;2023-03-01T07:30:21;4.75;3.00;1.00
72509;PMS5003;60532;56.114;40.350;2023-03-01T07:32:22;8.80;7.20;2.00
72509;PMS5003;60532;56.114;40.350;2023-03-01T07:34:22;5.50;5.25;2.00
72509;PMS5003;60532;56.114;40.350;2023-03-01T07:36:23;7.50;6.00;1.00
72509;PMS5003;60532;56.114;40.350;2023-03-01T07:38:24;6.25;6.00;1.50
72509;PMS5003;60532;56.114;40.350;2023-03-01T07:40:24;6.75;3.00;1.00
72509;PMS5003;60532;56.114;40.350;2023-03-01T07:42:25;2.50;2.00;1.00
72509;PMS5003;60532;56.114;40.350;2023-03-01T07:44:25;6.00;5.67;2.00
72509;PMS5003;60532;56.114;40.350;2023-03-01T07:46:25;5.00;5.00;2.00
72509;PMS5003;60532;56.114;40.350;2023-03-01T07:48:26;5.33;2.67;1.67
72509;PMS5003;60532;56.114;40.350;2023-03-01T07:50:26;6.00;5.00;2.00
72509;PMS5003;60532;56.114;40.350;2023-03-01T07:52:27;6.00;4.33;1.67
72509;PMS5003;60532;56.114;40.350;2023-03-01T07:54:27;7.00;6.00;2.00
72509;PMS5003;60532;56.114;40.350;2023-03-01T07:56:28;3.00;3.00;1.00
72509;PMS5003;60532;56.114;40.350;2023-03-01T07:58:28;4.00;3.67;1.00
72509;PMS5003;60532;56.114;40.350;2023-03-01T08:00:29;10.33;6.33;2.33
72509;PMS5003;60532;56.114;40.350;2023-03-01T08:02:29;3.00;3.00;1.00
72509;PMS5003;60532;56.114;40.350;2023-03-01T08:04:31;7.50;6.00;3.00
72509;PMS5003;60532;56.114;40.350;2023-03-01T08:06:33;1.50;1.50;0.00
72509;PMS5003;60532;56.114;40.350;2023-03-01T08:08:34;7.00;4.50;1.50
72509;PMS5003;60532;56.114;40.350;2023-03-01T08:10:35;6.00;3.67;1.00
72509;PMS5003;60532;56.114;40.350;2023-03-01T08:12:36;8.00;5.50;2.00
72509;PMS5003;60532;56.114;40.350;2023-03-01T08:14:36;6.00;4.33;2.00
72509;PMS5003;60532;56.114;40.350;2023-03-01T08:16:37;3.00;3.00;1.33
72509;PMS5003;60532;56.114;40.350;2023-03-01T08:18:37;3.67;3.67;1.00
72509;PMS5003;60532;56.114;40.350;2023-03-01T08:20:38;2.33;2.33;1.00
72509;PMS5003;60532;56.114;40.350;2023-03-01T08:22:38;6.33;3.67;1.00
72509;PMS5003;60532;56.114;40.350;2023-03-01T08:24:39;2.67;2.67;1.00
72509;PMS5003;60532;56.114;40.350;2023-03-01T08:26:39;4.67;3.67;1.33
72509;PMS5003;60532;56.114;40.350;2023-03-01T08:28:40;8.00;5.33;1.00
72509;PMS5003;60532;56.114;40.350;2023-03-01T08:30:40;5.33;4.00;1.00
72509;PMS5003;60532;56.114;40.350;2023-03-01T08:32:41;1.67;1.67;1.00
72509;PMS5003;60532;56.114;40.350;2023-03-01T08:34:41;5.33;1.67;0.00
72509;PMS5003;60532;56.114;40.350;2023-03-01T08:36:43;6.00;5.00;2.00
72509;PMS5003;60532;56.114;40.350;2023-03-01T08:38:43;5.50;5.50;1.00
72509;PMS5003;60532;56.114;40.350;2023-03-01T08:40:44;0.00;0.00;0.00
72509;PMS5003;60532;56.114;40.350;2023-03-01T08:42:44;5.33;1.33;0.00
72509;PMS5003;60532;56.114;40.350;2023-03-01T08:44:45;4.00;1.75;1.00
72509;PMS5003;60532;56.114;40.350;2023-03-01T08:46:46;2.00;1.67;0.00
72509;PMS5003;60532;56.114;40.350;2023-03-01T08:48:46;1.67;1.67;0.00
72509;PMS5003;60532;56.114;40.350;2023-03-01T08:50:47;3.33;1.33;0.33
72509;PMS5003;60532;56.114;40.350;2023-03-01T08:52:47;4.33;1.67;0.00
72509;PMS5003;60532;56.114;40.350;2023-03-01T08:54:48;9.33;5.67;1.00
72509;PMS5003;60532;56.114;40.350;2023-03-01T08:56:49;1.00;0.75;0.00
72509;PMS5003;60532;56.114;40.350;2023-03-01T08:58:49;2.33;1.00;0.00
72509;PMS5003;60532;56.114;40.350;2023-03-01T09:00:50;0.00;0.00;0.00
72509;PMS5003;60532;56.114;40.350;2023-03-01T09:02:50;5.33;4.00;1.00
72509;PMS5003;60532;56.114;40.350;2023-03-01T09:04:51;2.00;2.00;0.00
72509;PMS5003;60532;56.114;40.350;2023-03-01T09:06:51;3.00;3.00;0.00
72509;PMS5003;60532;56.114;40.350;2023-03-01T09:08:52;5.00;1.67;0.33
72509;PMS5003;60532;56.114;40.350;2023-03-01T09:10:52;2.67;1.00;0.00
72509;PMS5003;60532;56.114;40.350;2023-03-01T09:12:53;5.00;1.33;1.00
72509;PMS5003;60532;56.114;40.350;2023-03-01T09:14:53;5.00;3.33;1.00
72509;PMS5003;60532;56.114;40.350;2023-03-01T09:16:54;2.00;2.00;0.00
72509;PMS5003;60532;56.114;40.350;2023-03-01T09:18:54;2.00;2.00;1.00
72509;PMS5003;60532;56.114;40.350;2023-03-01T09:21:05;4.67;0.33;0.00
72509;PMS5003;60532;56.114;40.350;2023-03-01T09:23:07;3.50;3.50;0.25
72509;PMS5003;60532;56.114;40.350;2023-03-01T09:25:07;2.00;1.00;1.00
72509;PMS5003;60532;56.114;40.350;2023-03-01T09:27:08;2.00;2.00;0.33
72509;PMS5003;60532;56.114;40.350;2023-03-01T09:29:08;2.67;1.67;0.00
72509;PMS5003;60532;56.114;40.350;2023-03-01T09:31:09;1.75;1.75;0.00
72509;PMS5003;60532;56.114;40.350;2023-03-01T09:33:12;4.00;1.00;0.00
72509;PMS5003;60532;56.114;40.350;2023-03-01T09:35:14;4.25;1.75;0.00
72509;PMS5003;60532;56.114;40.350;2023-03-01T09:37:15;4.00;1.33;0.33
72509;PMS5003;60532;56.114;40.350;2023-03-01T09:39:15;4.00;2.00;0.00
72509;PMS5003;60532;56.114;40.350;2023-03-01T09:43:20;3.33;1.33;0.00
72509;PMS5003;60532;56.114;40.350;2023-03-01T09:45:33;4.25;3.00;0.00
72509;PMS5003;60532;56.114;40.350;2023-03-01T09:47:34;1.00;1.00;0.00
72509;PMS5003;60532;56.114;40.350;2023-03-01T09:49:36;1.00;1.00;0.00
72509;PMS5003;60532;56.114;40.350;2023-03-01T09:51:40;2.50;2.00;0.00
72509;PMS5003;60532;56.114;40.350;2023-03-01T09:53:42;2.50;2.00;0.25
72509;PMS5003;60532;56.114;40.350;2023-03-01T09:55:50;1.33;1.33;0.00
72509;PMS5003;60532;56.114;40.350;2023-03-01T09:57:59;1.50;1.50;0.50
72509;PMS5003;60532;56.114;40.350;2023-03-01T10:04:27;4.00;1.00;0.67
72509;PMS5003;60532;56.114;40.350;2023-03-01T10:06:28;1.50;1.50;1.00
72509;PMS5003;60532;56.114;40.350;2023-03-01T10:10:58;1.00;1.00;0.00
72509;PMS5003;60532;56.114;40.350;2023-03-01T10:13:00;3.00;2.00;0.00
72509;PMS5003;60532;56.114;40.350;2023-03-01T10:15:20;1.50;1.50;0.75
72509;PMS5003;60532;56.114;40.350;2023-03-01T10:19:42;4.00;2.00;0.00
72509;PMS5003;60532;56.114;40.350;2023-03-01T10:21:44;0.75;0.00;0.00
72509;PMS5003;60532;56.114;40.350;2023-03-01T10:23:46;2.00;1.00;0.00
72509;PMS5003;60532;56.114;40.350;2023-03-01T10:27:54;1.33;0.67;0.00
72509;PMS5003;60532;56.114;40.350;2023-03-01T10:29:59;1.50;1.00;0.00
72509;PMS5003;60532;56.114;40.350;2023-03-01T10:32:06;1.25;1.00;0.00
72509;PMS5003;60532;56.114;40.350;2023-03-01T10:34:10;2.67;0.00;0.00
72509;PMS5003;60532;56.114;40.350;2023-03-01T10:36:11;1.00;0.00;0.00
72509;PMS5003;60532;56.114;40.350;2023-03-01T10:38:12;2.00;1.00;0.00
72509;PMS5003;60532;56.114;40.350;2023-03-01T10:40:14;2.00;0.00;0.00
72509;PMS5003;60532;56.114;40.350;2023-03-01T10:42:34;0.67;0.00;0.00
72509;PMS5003;60532;56.114;40.350;2023-03-01T10:46:36;2.00;2.00;0.67
72509;PMS5003;60532;56.114;40.350;2023-03-01T10:48:37;1.00;1.00;0.00
72509;PMS5003;60532;56.114;40.350;2023-03-01T10:50:37;1.00;1.00;0.00
72509;PMS5003;60532;56.114;40.350;2023-03-01T10:52:40;1.00;1.00;0.00
72509;PMS5003;60532;56.114;40.350;2023-03-01T10:54:41;3.00;0.00;0.00
72509;PMS5003;60532;56.114;40.350;2023-03-01T10:56:51;3.00;0.25;0.00
72509;PMS5003;60532;56.114;40.350;2023-03-01T10:59:03;1.75;0.50;0.00
72509;PMS5003;60532;56.114;40.350;2023-03-01T11:03:18;0.50;0.50;0.00
72509;PMS5003;60532;56.114;40.350;2023-03-01T11:05:21;1.00;1.00;0.00
72509;PMS5003;60532;56.114;40.350;2023-03-01T11:07:24;0.00;0.00;0.00
72509;PMS5003;60532;56.114;40.350;2023-03-01T11:09:24;1.67;1.67;0.00
72509;PMS5003;60532;56.114;40.350;2023-03-01T11:11:34;1.00;1.00;0.50
72509;PMS5003;60532;56.114;40.350;2023-03-01T11:13:35;0.50;0.50;0.00
72509;PMS5003;60532;56.114;40.350;2023-03-01T11:15:36;0.50;0.50;0.00
72509;PMS5003;60532;56.114;40.350;2023-03-01T11:17:37;2.00;0.67;0.00
72509;PMS5003;60532;56.114;40.350;2023-03-01T11:19:38;1.50;1.00;0.00
72509;PMS5003;60532;56.114;40.350;2023-03-01T11:23:55;2.00;0.00;0.00
72509;PMS5003;60532;56.114;40.350;2023-03-01T11:25:59;1.50;1.00;0.25
72509;PMS5003;60532;56.114;40.350;2023-03-01T11:28:01;2.75;0.00;0.00
72509;PMS5003;60532;56.114;40.350;2023-03-01T11:30:03;1.00;1.00;0.50
72509;PMS5003;60532;56.114;40.350;2023-03-01T11:32:06;4.25;3.00;1.00
72509;PMS5003;60532;56.114;40.350;2023-03-01T11:34:12;2.00;0.00;0.00
72509;PMS5003;60532;56.114;40.350;2023-03-01T11:38:22;1.33;0.67;0.00
72509;PMS5003;60532;56.114;40.350;2023-03-01T11:40:27;1.75;1.00;0.00
72509;PMS5003;60532;56.114;40.350;2023-03-01T11:44:34;0.75;0.75;0.00
72509;PMS5003;60532;56.114;40.350;2023-03-01T11:48:44;1.50;0.25;0.00
72509;PMS5003;60532;56.114;40.350;2023-03-01T11:50:47;0.75;0.75;0.00
72509;PMS5003;60532;56.114;40.350;2023-03-01T11:52:57;0.00;0.00;0.00
72509;PMS5003;60532;56.114;40.350;2023-03-01T11:57:11;1.00;1.00;0.00
72509;PMS5003;60532;56.114;40.350;2023-03-01T12:01:36;0.00;0.00;0.00
72509;PMS5003;60532;56.114;40.350;2023-03-01T12:08:23;2.75;1.25;0.00
72509;PMS5003;60532;56.114;40.350;2023-03-01T12:10:28;2.00;1.00;0.00
72509;PMS5003;60532;56.114;40.350;2023-03-01T12:12:47;0.75;0.75;0.00
72509;PMS5003;60532;56.114;40.350;2023-03-01T12:25:35;1.50;0.25;0.00
72509;PMS5003;60532;56.114;40.350;2023-03-01T12:32:05;1.00;1.00;0.00
72509;PMS5003;60532;56.114;40.350;2023-03-01T12:34:19;0.75;0.00;0.00
72509;PMS5003;60532;56.114;40.350;2023-03-01T12:36:25;0.00;0.00;0.00